sensor_id;sensor_type;location;lat;lon;timestamp;pressure;altitude;pressure_sealevel;temperature;humidity
56737;BME280;42618;51.226;4.910;2023-04-10T00:00:52;49723.03;;;-146.94;67.67
56737;BME280;42618;51.226;4.910;2023-04-10T00:03:23;49723.03;;;-146.94;67.91
56737;BME280;42618;51.226;4.910;2023-04-10T00:05:50;49734.97;;;-146.94;67.89
56737;BME280;42618;51.226;4.910;2023-04-10T00:08:23;49693.13;;;-146.94;68.22
56737;BME280;42618;51.226;4.910;2023-04-10T00:10:50;49703.09;;;-146.94;68.37
56737;BME280;42618;51.226;4.910;2023-04-10T00:13:19;49717.03;;;-146.94;68.10
56737;BME280;42618;51.226;4.910;2023-04-10T00:15:46;49719.03;;;-146.94;68.41
56737;BME280;42618;51.226;4.910;2023-04-10T00:18:13;49707.06;;;-146.94;68.54
56737;BME280;42618;51.226;4.910;2023-04-10T00:20:40;49713.06;;;-146.94;68.79
56737;BME280;42618;51.226;4.910;2023-04-10T00:23:07;49713.06;;;-146.94;68.82
56737;BME280;42618;51.226;4.910;2023-04-10T00:25:34;49721.03;;;-146.94;68.84
56737;BME280;42618;51.226;4.910;2023-04-10T00:28:00;49707.06;;;-146.94;68.44
56737;BME280;42618;51.226;4.910;2023-04-10T00:30:27;49727.00;;;-146.94;68.15
56737;BME280;42618;51.226;4.910;2023-04-10T00:32:54;49709.06;;;-146.94;67.55
56737;BME280;42618;51.226;4.910;2023-04-10T00:35:20;49723.03;;;-146.94;68.30
56737;BME280;42618;51.226;4.910;2023-04-10T00:37:47;49746.94;;;-146.94;68.22
56737;BME280;42618;51.226;4.910;2023-04-10T00:40:15;49731.00;;;-146.94;67.42
56737;BME280;42618;51.226;4.910;2023-04-10T00:42:42;49707.06;;;-146.94;67.74
56737;BME280;42618;51.226;4.910;2023-04-10T00:45:09;49750.94;;;-146.94;67.58
56737;BME280;42618;51.226;4.910;2023-04-10T00:47:37;49715.03;;;-146.94;67.19
56737;BME280;42618;51.226;4.910;2023-04-10T00:50:04;49721.03;;;-146.94;67.38
56737;BME280;42618;51.226;4.910;2023-04-10T00:52:32;49754.91;;;-146.94;67.33
56737;BME280;42618;51.226;4.910;2023-04-10T00:54:58;49746.94;;;-146.94;66.55
56737;BME280;42618;51.226;4.910;2023-04-10T00:57:25;49715.03;;;-146.94;66.56
56737;BME280;42618;51.226;4.910;2023-04-10T00:59:52;49693.13;;;-146.94;65.68
56737;BME280;42618;51.226;4.910;2023-04-10T01:02:19;49727.00;;;-146.94;66.43
56737;BME280;42618;51.226;4.910;2023-04-10T01:04:46;49709.06;;;-146.94;65.84
56737;BME280;42618;51.226;4.910;2023-04-10T01:09:50;49723.03;;;-146.94;66.25
56737;BME280;42618;51.226;4.910;2023-04-10T01:12:42;49695.09;;;-146.94;65.63
56737;BME280;42618;51.226;4.910;2023-04-10T01:15:13;49715.03;;;-146.94;66.23
56737;BME280;42618;51.226;4.910;2023-04-10T01:18:13;49738.97;;;-146.94;65.55
56737;BME280;42618;51.226;4.910;2023-04-10T01:20:42;49715.03;;;-146.94;66.56
56737;BME280;42618;51.226;4.910;2023-04-10T01:26:09;49734.97;;;-146.94;67.05
56737;BME280;42618;51.226;4.910;2023-04-10T01:28:58;49679.16;;;-146.94;67.02
56737;BME280;42618;51.226;4.910;2023-04-10T01:32:01;49721.03;;;-146.94;67.48
56737;BME280;42618;51.226;4.910;2023-04-10T01:34:38;49760.91;;;-146.94;67.23
56737;BME280;42618;51.226;4.910;2023-04-10T01:37:15;49707.06;;;-146.94;67.46
56737;BME280;42618;51.226;4.910;2023-04-10T01:39:46;49742.94;;;-146.94;68.42
56737;BME280;42618;51.226;4.910;2023-04-10T01:42:16;49727.00;;;-146.94;68.05
56737;BME280;42618;51.226;4.910;2023-04-10T01:44:45;49717.03;;;-146.94;68.41
56737;BME280;42618;51.226;4.910;2023-04-10T01:47:14;49748.94;;;-146.94;68.23
56737;BME280;42618;51.226;4.910;2023-04-10T01:49:44;49695.09;;;-146.94;68.69
56737;BME280;42618;51.226;4.910;2023-04-10T01:52:13;49744.94;;;-146.94;68.97
56737;BME280;42618;51.226;4.910;2023-04-10T01:54:46;49689.13;;;-146.94;69.95
56737;BME280;42618;51.226;4.910;2023-04-10T01:57:21;49734.97;;;-146.94;69.89
56737;BME280;42618;51.226;4.910;2023-04-10T01:59:51;49736.97;;;-146.94;70.07
56737;BME280;42618;51.226;4.910;2023-04-10T02:02:18;49719.03;;;-146.94;70.75
56737;BME280;42618;51.226;4.910;2023-04-10T02:04:45;49748.94;;;-146.94;70.93
56737;BME280;42618;51.226;4.910;2023-04-10T02:07:35;49701.09;;;-146.94;71.78
56737;BME280;42618;51.226;4.910;2023-04-10T02:10:14;49758.91;;;-146.94;71.63
56737;BME280;42618;51.226;4.910;2023-04-10T02:12:51;49713.06;;;-146.94;71.86
56737;BME280;42618;51.226;4.910;2023-04-10T02:15:22;49746.94;;;-146.94;72.60
56737;BME280;42618;51.226;4.910;2023-04-10T02:17:51;49707.06;;;-146.94;72.27
56737;BME280;42618;51.226;4.910;2023-04-10T02:20:18;49742.94;;;-146.94;72.17
56737;BME280;42618;51.226;4.910;2023-04-10T02:22:45;49731.00;;;-146.94;72.21
56737;BME280;42618;51.226;4.910;2023-04-10T02:25:13;49738.97;;;-146.94;72.66
56737;BME280;42618;51.226;4.910;2023-04-10T02:27:40;49742.94;;;-146.94;73.10
56737;BME280;42618;51.226;4.910;2023-04-10T02:30:07;49687.13;;;-146.94;73.11
56737;BME280;42618;51.226;4.910;2023-04-10T02:32:34;49738.97;;;-146.94;73.80
56737;BME280;42618;51.226;4.910;2023-04-10T02:35:06;49760.91;;;-146.94;73.84
56737;BME280;42618;51.226;4.910;2023-04-10T02:37:35;49762.88;;;-146.94;73.67
56737;BME280;42618;51.226;4.910;2023-04-10T02:40:03;49742.94;;;-146.94;74.67
56737;BME280;42618;51.226;4.910;2023-04-10T02:42:39;49707.06;;;-146.94;75.25
56737;BME280;42618;51.226;4.910;2023-04-10T02:45:07;49719.03;;;-146.94;75.50
56737;BME280;42618;51.226;4.910;2023-04-10T02:47:38;49764.88;;;-146.94;76.27
56737;BME280;42618;51.226;4.910;2023-04-10T02:50:05;49731.00;;;-146.94;76.97
56737;BME280;42618;51.226;4.910;2023-04-10T02:52:35;49727.00;;;-146.94;77.83
56737;BME280;42618;51.226;4.910;2023-04-10T02:55:02;49736.97;;;-146.94;77.89
56737;BME280;42618;51.226;4.910;2023-04-10T02:57:33;49762.88;;;-146.94;78.30
56737;BME280;42618;51.226;4.910;2023-04-10T03:00:02;49727.00;;;-146.94;77.57
56737;BME280;42618;51.226;4.910;2023-04-10T03:02:48;49738.97;;;-146.94;78.06
56737;BME280;42618;51.226;4.910;2023-04-10T03:05:18;49742.94;;;-146.94;78.72
56737;BME280;42618;51.226;4.910;2023-04-10T03:07:45;49736.97;;;-146.94;79.15
56737;BME280;42618;51.226;4.910;2023-04-10T03:10:11;49744.94;;;-146.94;79.95
56737;BME280;42618;51.226;4.910;2023-04-10T03:12:38;49707.06;;;-146.94;79.88
56737;BME280;42618;51.226;4.910;2023-04-10T03:15:05;49738.97;;;-146.94;80.56
56737;BME280;42618;51.226;4.910;2023-04-10T03:17:32;49731.00;;;-146.94;81.08
56737;BME280;42618;51.226;4.910;2023-04-10T03:19:59;49738.97;;;-146.94;80.88
56737;BME280;42618;51.226;4.910;2023-04-10T03:22:26;49752.91;;;-146.94;80.55
56737;BME280;42618;51.226;4.910;2023-04-10T03:24:56;49762.88;;;-146.94;81.17
56737;BME280;42618;51.226;4.910;2023-04-10T03:27:23;49725.00;;;-146.94;81.68
56737;BME280;42618;51.226;4.910;2023-04-10T03:29:50;49750.94;;;-146.94;82.05
56737;BME280;42618;51.226;4.910;2023-04-10T03:32:16;49744.94;;;-146.94;81.94
56737;BME280;42618;51.226;4.910;2023-04-10T03:34:43;49736.97;;;-146.94;81.95
56737;BME280;42618;51.226;4.910;2023-04-10T03:37:10;49770.88;;;-146.94;81.69
56737;BME280;42618;51.226;4.910;2023-04-10T03:39:37;49719.03;;;-146.94;80.92
56737;BME280;42618;51.226;4.910;2023-04-10T03:42:04;49756.91;;;-146.94;80.73
56737;BME280;42618;51.226;4.910;2023-04-10T03:44:31;49768.88;;;-146.94;81.05
56737;BME280;42618;51.226;4.910;2023-04-10T03:46:58;49792.78;;;-146.94;80.51
56737;BME280;42618;51.226;4.910;2023-04-10T03:49:25;49756.91;;;-146.94;80.15
56737;BME280;42618;51.226;4.910;2023-04-10T03:52:00;49719.03;;;-146.94;79.79
56737;BME280;42618;51.226;4.910;2023-04-10T03:54:27;49782.81;;;-146.94;80.04
56737;BME280;42618;51.226;4.910;2023-04-10T03:56:54;49744.94;;;-146.94;80.01
56737;BME280;42618;51.226;4.910;2023-04-10T03:59:22;49733.00;;;-146.94;79.63
56737;BME280;42618;51.226;4.910;2023-04-10T04:01:59;49774.84;;;-146.94;80.27
56737;BME280;42618;51.226;4.910;2023-04-10T04:04:26;49727.00;;;-146.94;79.69
56737;BME280;42618;51.226;4.910;2023-04-10T04:07:19;49750.94;;;-146.94;79.37
56737;BME280;42618;51.226;4.910;2023-04-10T04:10:09;49766.88;;;-146.94;79.46
56737;BME280;42618;51.226;4.910;2023-04-10T04:12:48;49729.00;;;-146.94;80.07
56737;BME280;42618;51.226;4.910;2023-04-10T04:15:37;49768.88;;;-146.94;80.63
56737;BME280;42618;51.226;4.910;2023-04-10T04:18:34;49792.78;;;-146.94;80.69
56737;BME280;42618;51.226;4.910;2023-04-10T04:21:16;49780.84;;;-146.94;80.38
56737;BME280;42618;51.226;4.910;2023-04-10T04:24:18;49738.97;;;-146.94;79.89
56737;BME280;42618;51.226;4.910;2023-04-10T04:26:52;49778.84;;;-146.94;79.81
56737;BME280;42618;51.226;4.910;2023-04-10T04:29:57;49721.03;;;-146.94;79.98
56737;BME280;42618;51.226;4.910;2023-04-10T04:32:43;49733.00;;;-146.94;80.89
56737;BME280;42618;51.226;4.910;2023-04-10T04:35:23;49768.88;;;-146.94;79.88
56737;BME280;42618;51.226;4.910;2023-04-10T04:38:10;49731.00;;;-146.94;80.09
56737;BME280;42618;51.226;4.910;2023-04-10T04:40:56;49762.88;;;-146.94;79.91
56737;BME280;42618;51.226;4.910;2023-04-10T04:44:01;49731.00;;;-146.94;79.86
56737;BME280;42618;51.226;4.910;2023-04-10T04:46:46;49780.84;;;-146.94;79.91
56737;BME280;42618;51.226;4.910;2023-04-10T04:49:31;49746.94;;;-146.94;79.39
56737;BME280;42618;51.226;4.910;2023-04-10T04:52:16;49824.69;;;-146.94;79.51
56737;BME280;42618;51.226;4.910;2023-04-10T04:54:55;49727.00;;;-146.94;78.90
56737;BME280;42618;51.226;4.910;2023-04-10T04:57:50;49738.97;;;-146.94;79.68
56737;BME280;42618;51.226;4.910;2023-04-10T05:00:28;49762.88;;;-146.94;78.92
56737;BME280;42618;51.226;4.910;2023-04-10T05:03:08;49738.97;;;-146.94;78.68
56737;BME280;42618;51.226;4.910;2023-04-10T05:05:40;49725.00;;;-146.94;78.90
56737;BME280;42618;51.226;4.910;2023-04-10T05:08:26;49770.88;;;-146.94;79.68
56737;BME280;42618;51.226;4.910;2023-04-10T05:11:03;49762.88;;;-146.94;78.15
56737;BME280;42618;51.226;4.910;2023-04-10T05:13:50;49734.97;;;-146.94;78.37
56737;BME280;42618;51.226;4.910;2023-04-10T05:16:40;49778.84;;;-146.94;77.63
56737;BME280;42618;51.226;4.910;2023-04-10T05:19:16;49715.03;;;-146.94;77.50
56737;BME280;42618;51.226;4.910;2023-04-10T05:22:10;49760.91;;;-146.94;77.54
56737;BME280;42618;51.226;4.910;2023-04-10T05:25:11;49768.88;;;-146.94;77.02
56737;BME280;42618;51.226;4.910;2023-04-10T05:27:56;49764.88;;;-146.94;76.67
56737;BME280;42618;51.226;4.910;2023-04-10T05:30:43;49731.00;;;-146.94;76.52
56737;BME280;42618;51.226;4.910;2023-04-10T05:33:30;49748.94;;;-146.94;76.38
56737;BME280;42618;51.226;4.910;2023-04-10T05:36:09;49754.91;;;-146.94;76.27
56737;BME280;42618;51.226;4.910;2023-04-10T05:38:55;49754.91;;;-146.94;76.28
56737;BME280;42618;51.226;4.910;2023-04-10T05:41:40;49758.91;;;-146.94;75.63
56737;BME280;42618;51.226;4.910;2023-04-10T05:44:20;49736.97;;;-146.94;75.12
56737;BME280;42618;51.226;4.910;2023-04-10T05:46:59;49766.88;;;-146.94;75.38
56737;BME280;42618;51.226;4.910;2023-04-10T05:49:43;49758.91;;;-146.94;74.62
56737;BME280;42618;51.226;4.910;2023-04-10T05:52:39;49770.88;;;-146.94;74.45
56737;BME280;42618;51.226;4.910;2023-04-10T05:55:20;49756.91;;;-146.94;74.17
56737;BME280;42618;51.226;4.910;2023-04-10T05:57:54;49748.94;;;-146.94;74.78
56737;BME280;42618;51.226;4.910;2023-04-10T06:00:57;49754.91;;;-146.94;74.15
56737;BME280;42618;51.226;4.910;2023-04-10T06:03:38;49750.94;;;-146.94;73.94
56737;BME280;42618;51.226;4.910;2023-04-10T06:06:06;49788.81;;;-146.94;73.01
56737;BME280;42618;51.226;4.910;2023-04-10T06:08:33;49774.84;;;-146.94;72.76
56737;BME280;42618;51.226;4.910;2023-04-10T06:11:00;49780.84;;;-146.94;72.32
56737;BME280;42618;51.226;4.910;2023-04-10T06:13:29;49723.03;;;-146.94;72.11
56737;BME280;42618;51.226;4.910;2023-04-10T06:15:59;49760.91;;;-146.94;72.34
56737;BME280;42618;51.226;4.910;2023-04-10T06:18:28;49727.00;;;-146.94;72.26
56737;BME280;42618;51.226;4.910;2023-04-10T06:20:55;49746.94;;;-146.94;71.68
56737;BME280;42618;51.226;4.910;2023-04-10T06:23:23;49748.94;;;-146.94;71.01
56737;BME280;42618;51.226;4.910;2023-04-10T06:25:50;49790.81;;;-146.94;71.53
56737;BME280;42618;51.226;4.910;2023-04-10T06:28:16;49738.97;;;-146.94;71.09
56737;BME280;42618;51.226;4.910;2023-04-10T06:30:47;49752.91;;;-146.94;70.94
56737;BME280;42618;51.226;4.910;2023-04-10T06:33:15;49786.81;;;-146.94;70.63
56737;BME280;42618;51.226;4.910;2023-04-10T06:35:43;49727.00;;;-146.94;70.81
56737;BME280;42618;51.226;4.910;2023-04-10T06:38:10;49736.97;;;-146.94;70.72
56737;BME280;42618;51.226;4.910;2023-04-10T06:40:39;49750.94;;;-146.94;69.76
56737;BME280;42618;51.226;4.910;2023-04-10T06:43:06;49736.97;;;-146.94;70.36
56737;BME280;42618;51.226;4.910;2023-04-10T06:45:36;49750.94;;;-146.94;70.05
56737;BME280;42618;51.226;4.910;2023-04-10T06:48:03;49713.06;;;-146.94;69.79
56737;BME280;42618;51.226;4.910;2023-04-10T06:50:30;49750.94;;;-146.94;69.06
56737;BME280;42618;51.226;4.910;2023-04-10T06:52:58;49738.97;;;-146.94;68.81
56737;BME280;42618;51.226;4.910;2023-04-10T06:55:25;49772.84;;;-146.94;68.57
56737;BME280;42618;51.226;4.910;2023-04-10T06:57:52;49719.03;;;-146.94;68.59
56737;BME280;42618;51.226;4.910;2023-04-10T07:00:21;49733.00;;;-146.94;68.28
56737;BME280;42618;51.226;4.910;2023-04-10T07:02:48;49719.03;;;-146.94;68.22
56737;BME280;42618;51.226;4.910;2023-04-10T07:05:15;49762.88;;;-146.94;67.84
56737;BME280;42618;51.226;4.910;2023-04-10T07:07:41;49750.94;;;-146.94;67.58
56737;BME280;42618;51.226;4.910;2023-04-10T07:10:08;49742.94;;;-146.94;67.23
56737;BME280;42618;51.226;4.910;2023-04-10T07:12:35;49800.78;;;-146.94;67.31
56737;BME280;42618;51.226;4.910;2023-04-10T07:15:02;49752.91;;;-146.94;67.46
56737;BME280;42618;51.226;4.910;2023-04-10T07:17:29;49768.88;;;-146.94;67.64
56737;BME280;42618;51.226;4.910;2023-04-10T07:19:56;49740.97;;;-146.94;66.44
56737;BME280;42618;51.226;4.910;2023-04-10T07:22:23;49740.97;;;-146.94;66.82
56737;BME280;42618;51.226;4.910;2023-04-10T07:24:50;49764.88;;;-146.94;65.90
56737;BME280;42618;51.226;4.910;2023-04-10T07:27:16;49742.94;;;-146.94;66.05
56737;BME280;42618;51.226;4.910;2023-04-10T07:29:43;49742.94;;;-146.94;65.23
56737;BME280;42618;51.226;4.910;2023-04-10T07:32:10;49683.16;;;-146.94;65.13
56737;BME280;42618;51.226;4.910;2023-04-10T07:34:37;49738.97;;;-146.94;64.83
56737;BME280;42618;51.226;4.910;2023-04-10T07:37:03;49725.00;;;-146.94;63.57
56737;BME280;42618;51.226;4.910;2023-04-10T07:39:30;49709.06;;;-146.94;63.44
56737;BME280;42618;51.226;4.910;2023-04-10T07:41:57;49681.16;;;-146.94;63.76
56737;BME280;42618;51.226;4.910;2023-04-10T07:44:25;49725.00;;;-146.94;64.20
56737;BME280;42618;51.226;4.910;2023-04-10T07:46:52;49733.00;;;-146.94;63.17
56737;BME280;42618;51.226;4.910;2023-04-10T07:49:19;49705.06;;;-146.94;63.52
56737;BME280;42618;51.226;4.910;2023-04-10T07:51:46;49734.97;;;-146.94;62.19
56737;BME280;42618;51.226;4.910;2023-04-10T07:54:12;49715.03;;;-146.94;62.82
56737;BME280;42618;51.226;4.910;2023-04-10T07:56:39;49733.00;;;-146.94;64.22
56737;BME280;42618;51.226;4.910;2023-04-10T07:59:06;49707.06;;;-146.94;63.35
56737;BME280;42618;51.226;4.910;2023-04-10T08:01:33;49736.97;;;-146.94;63.49
56737;BME280;42618;51.226;4.910;2023-04-10T08:04:00;49713.06;;;-146.94;63.73
56737;BME280;42618;51.226;4.910;2023-04-10T08:06:31;49740.97;;;-146.94;62.69
56737;BME280;42618;51.226;4.910;2023-04-10T08:08:58;49719.03;;;-146.94;62.47
56737;BME280;42618;51.226;4.910;2023-04-10T08:11:32;49715.03;;;-146.94;62.27
56737;BME280;42618;51.226;4.910;2023-04-10T08:14:03;49679.16;;;-146.94;63.30
56737;BME280;42618;51.226;4.910;2023-04-10T08:16:33;49703.09;;;-146.94;62.87
56737;BME280;42618;51.226;4.910;2023-04-10T08:19:00;49770.88;;;-146.94;61.93
56737;BME280;42618;51.226;4.910;2023-04-10T08:21:29;49752.91;;;-146.94;62.31
56737;BME280;42618;51.226;4.910;2023-04-10T08:24:00;49738.97;;;-146.94;61.95
56737;BME280;42618;51.226;4.910;2023-04-10T08:26:30;49727.00;;;-146.94;61.80
56737;BME280;42618;51.226;4.910;2023-04-10T08:28:58;49695.09;;;-146.94;61.05
56737;BME280;42618;51.226;4.910;2023-04-10T08:31:26;49736.97;;;-146.94;61.37
56737;BME280;42618;51.226;4.910;2023-04-10T08:33:54;49746.94;;;-146.94;60.64
56737;BME280;42618;51.226;4.910;2023-04-10T08:36:21;49701.09;;;-146.94;60.25
56737;BME280;42618;51.226;4.910;2023-04-10T08:38:48;49731.00;;;-146.94;59.97
56737;BME280;42618;51.226;4.910;2023-04-10T08:41:16;49701.09;;;-146.94;59.51
56737;BME280;42618;51.226;4.910;2023-04-10T08:43:44;49725.00;;;-146.94;60.10
56737;BME280;42618;51.226;4.910;2023-04-10T08:46:15;49705.06;;;-146.94;59.58
56737;BME280;42618;51.226;4.910;2023-04-10T08:48:51;49717.03;;;-146.94;59.00
56737;BME280;42618;51.226;4.910;2023-04-10T08:51:20;49733.00;;;-146.94;59.63
56737;BME280;42618;51.226;4.910;2023-04-10T08:53:57;49715.03;;;-146.94;59.20
56737;BME280;42618;51.226;4.910;2023-04-10T08:56:29;49717.03;;;-146.94;59.66
56737;BME280;42618;51.226;4.910;2023-04-10T08:59:00;49725.00;;;-146.94;58.55
56737;BME280;42618;51.226;4.910;2023-04-10T09:01:27;49685.13;;;-146.94;58.94
56737;BME280;42618;51.226;4.910;2023-04-10T09:03:53;49693.13;;;-146.94;58.38
56737;BME280;42618;51.226;4.910;2023-04-10T09:06:21;49673.19;;;-146.94;58.58
56737;BME280;42618;51.226;4.910;2023-04-10T09:08:47;49691.13;;;-146.94;58.86
56737;BME280;42618;51.226;4.910;2023-04-10T09:11:14;49707.06;;;-146.94;58.88
56737;BME280;42618;51.226;4.910;2023-04-10T09:13:42;49729.00;;;-146.94;58.70
56737;BME280;42618;51.226;4.910;2023-04-10T09:16:10;49687.13;;;-146.94;58.88
56737;BME280;42618;51.226;4.910;2023-04-10T09:18:41;49701.09;;;-146.94;58.37
56737;BME280;42618;51.226;4.910;2023-04-10T09:21:10;49723.03;;;-146.94;59.07
56737;BME280;42618;51.226;4.910;2023-04-10T09:23:37;49727.00;;;-146.94;58.45
56737;BME280;42618;51.226;4.910;2023-04-10T09:26:26;49719.03;;;-146.94;58.11
56737;BME280;42618;51.226;4.910;2023-04-10T09:29:06;49750.94;;;-146.94;58.40
56737;BME280;42618;51.226;4.910;2023-04-10T09:31:37;49705.06;;;-146.94;57.32
56737;BME280;42618;51.226;4.910;2023-04-10T09:36:52;49695.09;;;-146.94;56.24
56737;BME280;42618;51.226;4.910;2023-04-10T09:39:19;49733.00;;;-146.94;55.41
56737;BME280;42618;51.226;4.910;2023-04-10T09:41:51;49685.13;;;-146.94;54.79
56737;BME280;42618;51.226;4.910;2023-04-10T09:44:27;49703.09;;;-146.94;54.61
56737;BME280;42618;51.226;4.910;2023-04-10T09:47:17;49695.09;;;-146.94;54.77
56737;BME280;42618;51.226;4.910;2023-04-10T09:52:22;49661.22;;;-146.94;52.88
56737;BME280;42618;51.226;4.910;2023-04-10T09:54:50;49683.16;;;-146.94;53.08
56737;BME280;42618;51.226;4.910;2023-04-10T09:57:19;49671.19;;;-146.94;52.57
56737;BME280;42618;51.226;4.910;2023-04-10T09:59:51;49723.03;;;-146.94;52.40
56737;BME280;42618;51.226;4.910;2023-04-10T10:02:19;49717.03;;;-146.94;52.02
56737;BME280;42618;51.226;4.910;2023-04-10T10:04:47;49663.22;;;-146.94;52.41
56737;BME280;42618;51.226;4.910;2023-04-10T10:07:16;49679.16;;;-146.94;52.28
56737;BME280;42618;51.226;4.910;2023-04-10T10:09:44;49683.16;;;-146.94;51.36
56737;BME280;42618;51.226;4.910;2023-04-10T10:12:18;49695.09;;;-146.94;51.56
56737;BME280;42618;51.226;4.910;2023-04-10T10:14:53;49701.09;;;-146.94;51.09
56737;BME280;42618;51.226;4.910;2023-04-10T10:17:24;49707.06;;;-146.94;50.31
56737;BME280;42618;51.226;4.910;2023-04-10T10:19:59;49659.22;;;-146.94;50.23
56737;BME280;42618;51.226;4.910;2023-04-10T10:22:29;49711.06;;;-146.94;49.68
56737;BME280;42618;51.226;4.910;2023-04-10T10:24:57;49667.19;;;-146.94;48.77
56737;BME280;42618;51.226;4.910;2023-04-10T10:27:25;49695.09;;;-146.94;48.73
56737;BME280;42618;51.226;4.910;2023-04-10T10:29:53;49699.09;;;-146.94;48.58
56737;BME280;42618;51.226;4.910;2023-04-10T10:32:21;49669.19;;;-146.94;48.19
56737;BME280;42618;51.226;4.910;2023-04-10T10:34:52;49635.31;;;-146.94;47.68
56737;BME280;42618;51.226;4.910;2023-04-10T10:37:19;49659.22;;;-146.94;47.80
56737;BME280;42618;51.226;4.910;2023-04-10T10:45:13;49667.19;;;-146.94;46.98
56737;BME280;42618;51.226;4.910;2023-04-10T10:47:47;49655.25;;;-146.94;47.12
56737;BME280;42618;51.226;4.910;2023-04-10T10:50:15;49631.31;;;-146.94;46.32
56737;BME280;42618;51.226;4.910;2023-04-10T10:52:49;49693.13;;;-146.94;46.20
56737;BME280;42618;51.226;4.910;2023-04-10T11:00:15;49623.34;;;-146.94;45.71
56737;BME280;42618;51.226;4.910;2023-04-10T11:02:42;49667.19;;;-146.94;45.00
56737;BME280;42618;51.226;4.910;2023-04-10T11:05:09;49659.22;;;-146.94;44.79
56737;BME280;42618;51.226;4.910;2023-04-10T11:10:59;49655.25;;;-146.94;44.96
56737;BME280;42618;51.226;4.910;2023-04-10T11:13:34;49661.22;;;-146.94;44.24
56737;BME280;42618;51.226;4.910;2023-04-10T11:16:03;49655.25;;;-146.94;43.73
56737;BME280;42618;51.226;4.910;2023-04-10T11:21:18;49669.19;;;-146.94;43.68
56737;BME280;42618;51.226;4.910;2023-04-10T11:31:43;49641.28;;;-146.94;43.64
56737;BME280;42618;51.226;4.910;2023-04-10T11:34:11;49663.22;;;-146.94;43.80
56737;BME280;42618;51.226;4.910;2023-04-10T11:36:39;49683.16;;;-146.94;43.36
56737;BME280;42618;51.226;4.910;2023-04-10T11:39:09;49627.31;;;-146.94;43.68
56737;BME280;42618;51.226;4.910;2023-04-10T11:41:41;49681.16;;;-146.94;43.66
56737;BME280;42618;51.226;4.910;2023-04-10T11:46:52;49611.38;;;-146.94;44.05
56737;BME280;42618;51.226;4.910;2023-04-10T11:49:21;49669.19;;;-146.94;43.73
56737;BME280;42618;51.226;4.910;2023-04-10T11:51:49;49685.13;;;-146.94;44.02
56737;BME280;42618;51.226;4.910;2023-04-10T11:54:17;49651.25;;;-146.94;43.54
56737;BME280;42618;51.226;4.910;2023-04-10T11:57:05;49659.22;;;-146.94;43.89
56737;BME280;42618;51.226;4.910;2023-04-10T11:59:34;49667.19;;;-146.94;43.96
56737;BME280;42618;51.226;4.910;2023-04-10T12:02:06;49635.31;;;-146.94;43.48
56737;BME280;42618;51.226;4.910;2023-04-10T12:04:35;49647.25;;;-146.94;43.42
56737;BME280;42618;51.226;4.910;2023-04-10T12:07:03;49655.25;;;-146.94;43.56
56737;BME280;42618;51.226;4.910;2023-04-10T12:09:30;49625.34;;;-146.94;43.70
56737;BME280;42618;51.226;4.910;2023-04-10T12:12:01;49663.22;;;-146.94;43.79
56737;BME280;42618;51.226;4.910;2023-04-10T12:14:34;49641.28;;;-146.94;43.95
56737;BME280;42618;51.226;4.910;2023-04-10T12:17:03;49617.38;;;-146.94;43.99
56737;BME280;42618;51.226;4.910;2023-04-10T12:19:31;49643.28;;;-146.94;44.02
56737;BME280;42618;51.226;4.910;2023-04-10T12:21:58;49671.19;;;-146.94;44.39
56737;BME280;42618;51.226;4.910;2023-04-10T12:27:06;49673.19;;;-146.94;43.84
56737;BME280;42618;51.226;4.910;2023-04-10T12:29:32;49671.19;;;-146.94;44.56
56737;BME280;42618;51.226;4.910;2023-04-10T12:32:07;49651.25;;;-146.94;44.38
56737;BME280;42618;51.226;4.910;2023-04-10T12:34:35;49653.25;;;-146.94;44.23
56737;BME280;42618;51.226;4.910;2023-04-10T12:37:01;49659.22;;;-146.94;44.17
56737;BME280;42618;51.226;4.910;2023-04-10T12:39:29;49663.22;;;-146.94;44.55
56737;BME280;42618;51.226;4.910;2023-04-10T12:42:17;49663.22;;;-146.94;44.48
56737;BME280;42618;51.226;4.910;2023-04-10T12:44:55;49665.22;;;-146.94;44.58
56737;BME280;42618;51.226;4.910;2023-04-10T12:47:22;49675.19;;;-146.94;44.57
56737;BME280;42618;51.226;4.910;2023-04-10T12:50:06;49671.19;;;-146.94;44.76
56737;BME280;42618;51.226;4.910;2023-04-10T12:52:34;49637.28;;;-146.94;44.92
56737;BME280;42618;51.226;4.910;2023-04-10T12:55:14;49647.25;;;-146.94;45.00
56737;BME280;42618;51.226;4.910;2023-04-10T12:57:46;49653.25;;;-146.94;45.07
56737;BME280;42618;51.226;4.910;2023-04-10T13:00:15;49667.19;;;-146.94;45.08
56737;BME280;42618;51.226;4.910;2023-04-10T13:02:43;49629.31;;;-146.94;45.42
56737;BME280;42618;51.226;4.910;2023-04-10T13:05:11;49667.19;;;-146.94;45.47
56737;BME280;42618;51.226;4.910;2023-04-10T13:07:38;49655.25;;;-146.94;46.04
56737;BME280;42618;51.226;4.910;2023-04-10T13:10:06;49687.13;;;-146.94;46.96
56737;BME280;42618;51.226;4.910;2023-04-10T13:12:34;49639.28;;;-146.94;47.26
56737;BME280;42618;51.226;4.910;2023-04-10T13:15:01;49661.22;;;-146.94;47.08
56737;BME280;42618;51.226;4.910;2023-04-10T13:17:28;49643.28;;;-146.94;47.17
56737;BME280;42618;51.226;4.910;2023-04-10T13:19:55;49671.19;;;-146.94;47.20
56737;BME280;42618;51.226;4.910;2023-04-10T13:22:22;49669.19;;;-146.94;48.12
56737;BME280;42618;51.226;4.910;2023-04-10T13:24:49;49693.13;;;-146.94;48.90
56737;BME280;42618;51.226;4.910;2023-04-10T13:27:15;49693.13;;;-146.94;49.55
56737;BME280;42618;51.226;4.910;2023-04-10T13:29:42;49677.16;;;-146.94;49.93
56737;BME280;42618;51.226;4.910;2023-04-10T13:32:09;49657.22;;;-146.94;50.69
56737;BME280;42618;51.226;4.910;2023-04-10T13:34:36;49641.28;;;-146.94;49.58
56737;BME280;42618;51.226;4.910;2023-04-10T13:37:03;49671.19;;;-146.94;50.62
56737;BME280;42618;51.226;4.910;2023-04-10T13:39:30;49677.16;;;-146.94;50.65
56737;BME280;42618;51.226;4.910;2023-04-10T13:41:57;49661.22;;;-146.94;51.93
56737;BME280;42618;51.226;4.910;2023-04-10T13:44:24;49663.22;;;-146.94;51.88